createdAt,value
2022-09-26T00:01:35.259Z,11.75
2022-09-26T00:04:04.628Z,11.65
2022-09-26T00:06:31.960Z,11.67
2022-09-26T00:08:59.558Z,11.67
2022-09-26T00:11:30.112Z,11.69
2022-09-26T00:14:00.941Z,11.68
2022-09-26T00:16:28.958Z,11.63
2022-09-26T00:18:59.080Z,11.63
2022-09-26T00:21:29.563Z,11.64
2022-09-26T00:23:58.503Z,11.62
2022-09-26T00:26:27.700Z,11.59
2022-09-26T00:28:56.120Z,11.57
2022-09-26T00:31:27.078Z,11.62
2022-09-26T00:33:54.968Z,11.60
2022-09-26T00:36:29.748Z,11.60
2022-09-26T00:39:04.570Z,11.60
2022-09-26T00:41:32.599Z,11.60
2022-09-26T00:44:00.793Z,11.62
2022-09-26T00:46:39.778Z,11.61
2022-09-26T00:49:21.060Z,11.60
2022-09-26T00:51:55.667Z,11.60
2022-09-26T00:54:24.640Z,11.61
2022-09-26T00:56:55.039Z,11.58
2022-09-26T00:59:29.457Z,11.55
2022-09-26T01:01:59.871Z,11.54
2022-09-26T01:04:29.437Z,11.55
2022-09-26T01:07:00.018Z,11.53
2022-09-26T01:09:29.177Z,11.54
2022-09-26T01:11:57.129Z,11.52
2022-09-26T01:14:25.150Z,11.54
2022-09-26T01:16:55.030Z,11.54
2022-09-26T01:19:37.769Z,11.55
2022-09-26T01:22:42.640Z,11.53
2022-09-26T01:25:22.000Z,11.49
2022-09-26T01:28:13.869Z,11.44
2022-09-26T01:30:48.523Z,11.41
2022-09-26T01:33:28.639Z,11.41
2022-09-26T01:36:30.027Z,11.44
2022-09-26T01:39:28.608Z,11.48
2022-09-26T01:41:59.657Z,11.52
2022-09-26T01:44:36.549Z,11.52
2022-09-26T01:47:09.639Z,11.49
2022-09-26T01:50:11.896Z,11.48
2022-09-26T01:52:55.480Z,11.47
2022-09-26T01:55:34.837Z,11.48
2022-09-26T01:58:10.217Z,11.44
2022-09-26T02:00:40.387Z,11.48
2022-09-26T02:03:19.618Z,11.48
2022-09-26T02:05:59.722Z,11.48
2022-09-26T02:08:34.157Z,11.46
2022-09-26T02:11:19.531Z,11.45
2022-09-26T02:14:16.080Z,11.47
2022-09-26T02:16:57.183Z,11.45
2022-09-26T02:19:29.869Z,11.44
2022-09-26T02:21:59.178Z,11.43
2022-09-26T02:24:28.509Z,11.44
2022-09-26T02:26:57.556Z,11.43
2022-09-26T02:29:25.440Z,11.43
2022-09-26T02:32:03.381Z,11.36
2022-09-26T02:34:31.008Z,11.27
2022-09-26T02:37:01.050Z,11.19
2022-09-26T02:39:32.467Z,11.12
2022-09-26T02:42:25.271Z,11.08
2022-09-26T02:45:37.860Z,11.05
2022-09-26T02:48:14.298Z,11.01
2022-09-26T02:51:03.578Z,10.96
2022-09-26T02:53:34.059Z,10.91
2022-09-26T02:56:11.037Z,10.86
2022-09-26T02:58:42.571Z,10.85
2022-09-26T03:01:27.152Z,10.78
2022-09-26T03:03:58.136Z,10.71
2022-09-26T03:06:31.267Z,10.69
2022-09-26T03:09:00.125Z,10.58
2022-09-26T03:11:30.170Z,10.59
2022-09-26T03:13:59.787Z,10.57
2022-09-26T03:16:32.638Z,10.46
2022-09-26T03:19:10.786Z,10.42
2022-09-26T03:21:38.358Z,10.39
2022-09-26T03:24:06.448Z,10.33
2022-09-26T03:26:34.916Z,10.35
2022-09-26T03:29:03.868Z,10.32
2022-09-26T03:31:33.739Z,10.20
2022-09-26T03:34:04.506Z,10.11
2022-09-26T03:36:32.397Z,10.03
2022-09-26T03:39:02.188Z,9.98
2022-09-26T03:42:02.830Z,9.92
2022-09-26T03:44:31.590Z,9.87
2022-09-26T03:47:15.881Z,9.90
2022-09-26T03:49:45.738Z,9.87
2022-09-26T03:52:13.947Z,9.94
2022-09-26T03:54:43.237Z,9.90
2022-09-26T03:57:15.396Z,9.95
2022-09-26T03:59:49.916Z,9.97
2022-09-26T04:02:19.986Z,10.04
2022-09-26T04:04:55.656Z,10.10
2022-09-26T04:07:23.338Z,10.07
2022-09-26T04:09:50.826Z,10.08
2022-09-26T04:12:20.067Z,10.14
2022-09-26T04:14:47.757Z,10.03
2022-09-26T04:17:15.248Z,9.90
2022-09-26T04:19:44.817Z,9.81
2022-09-26T04:22:12.278Z,9.83
2022-09-26T04:24:40.168Z,9.81
2022-09-26T04:27:08.677Z,9.82
2022-09-26T04:29:37.206Z,9.71
2022-09-26T04:32:19.820Z,9.68
2022-09-26T04:35:15.717Z,9.61
2022-09-26T04:37:43.277Z,9.70
2022-09-26T04:40:11.330Z,9.77
2022-09-26T04:42:46.017Z,9.78
2022-09-26T04:45:13.592Z,9.76
2022-09-26T04:47:41.034Z,9.81
2022-09-26T04:50:31.657Z,9.84
2022-09-26T04:53:08.364Z,9.85
2022-09-26T04:55:55.988Z,9.87
2022-09-26T04:58:23.886Z,9.87
2022-09-26T05:00:52.590Z,9.84
2022-09-26T05:03:34.009Z,9.84
2022-09-26T05:06:01.497Z,9.82
2022-09-26T05:08:29.445Z,9.80
2022-09-26T05:10:58.324Z,9.80
2022-09-26T05:13:26.954Z,9.77
2022-09-26T05:15:55.884Z,9.77
2022-09-26T05:18:23.727Z,9.80
2022-09-26T05:20:51.393Z,9.85
2022-09-26T05:23:44.518Z,9.86
2022-09-26T05:26:22.715Z,9.85
2022-09-26T05:28:55.406Z,9.87
2022-09-26T05:31:29.215Z,9.90
2022-09-26T05:33:57.356Z,9.94
2022-09-26T05:36:26.185Z,10.01
2022-09-26T05:38:54.356Z,10.03
2022-09-26T05:41:24.334Z,10.08
2022-09-26T05:43:52.264Z,10.08
2022-09-26T05:46:19.859Z,10.13
2022-09-26T05:48:51.223Z,10.20
2022-09-26T05:51:22.483Z,10.23
2022-09-26T05:53:50.065Z,10.29
2022-09-26T05:56:20.838Z,10.29
2022-09-26T05:59:07.127Z,10.22
2022-09-26T06:02:00.849Z,10.18
2022-09-26T06:04:44.443Z,10.19
2022-09-26T06:07:30.070Z,10.14
2022-09-26T06:09:57.713Z,10.16
2022-09-26T06:12:47.545Z,10.12
2022-09-26T06:15:17.603Z,10.08
2022-09-26T06:17:45.543Z,10.08
2022-09-26T06:20:13.345Z,10.07
2022-09-26T06:22:42.046Z,10.04
2022-09-26T06:25:10.656Z,10.04
2022-09-26T06:27:41.020Z,10.06
2022-09-26T06:30:10.719Z,10.07
2022-09-26T06:32:41.373Z,10.10
2022-09-26T06:35:22.123Z,10.14
2022-09-26T06:38:08.606Z,10.15
2022-09-26T06:40:36.888Z,10.22
2022-09-26T06:43:04.424Z,10.24
2022-09-26T06:45:50.778Z,10.33
2022-09-26T06:48:25.694Z,10.37
2022-09-26T06:51:00.657Z,10.36
2022-09-26T06:53:31.506Z,10.41
2022-09-26T06:56:00.165Z,10.51
2022-09-26T06:58:28.165Z,10.60
2022-09-26T07:01:06.868Z,10.72
2022-09-26T07:03:54.447Z,10.78
2022-09-26T07:06:40.704Z,10.89
2022-09-26T07:09:12.513Z,10.93
2022-09-26T07:12:15.354Z,10.93
2022-09-26T07:14:43.852Z,11.00
2022-09-26T07:17:29.367Z,11.04
2022-09-26T07:20:18.812Z,11.03
2022-09-26T07:23:11.370Z,10.95
2022-09-26T07:25:44.382Z,10.95
2022-09-26T07:28:12.155Z,10.87
2022-09-26T07:30:46.426Z,10.85
2022-09-26T07:33:32.342Z,10.95
2022-09-26T07:36:05.783Z,10.96
2022-09-26T07:38:33.503Z,11.18
2022-09-26T07:41:01.332Z,11.25
2022-09-26T07:44:04.479Z,11.55
2022-09-26T07:46:38.922Z,11.69
2022-09-26T07:49:25.232Z,11.92
2022-09-26T07:52:06.135Z,12.29
2022-09-26T07:54:56.574Z,12.50
2022-09-26T07:57:44.393Z,12.74
2022-09-26T08:00:47.015Z,12.71
2022-09-26T08:03:33.613Z,12.80
2022-09-26T08:06:05.873Z,12.84
2022-09-26T08:08:33.592Z,12.75
2022-09-26T08:11:04.153Z,12.99
2022-09-26T08:13:57.754Z,13.70
2022-09-26T08:16:45.472Z,14.38
2022-09-26T08:19:17.500Z,14.80
2022-09-26T08:21:46.033Z,15.21
2022-09-26T08:24:13.972Z,15.72
2022-09-26T08:27:00.474Z,16.17
2022-09-26T08:29:35.151Z,16.43
2022-09-26T08:32:04.415Z,16.74
2022-09-26T08:34:35.175Z,17.07
2022-09-26T08:37:26.443Z,17.28
2022-09-26T08:40:12.905Z,17.48
2022-09-26T08:43:26.258Z,17.81
2022-09-26T08:47:17.423Z,17.74
2022-09-26T08:50:26.673Z,17.16
2022-09-26T08:53:06.553Z,17.08
2022-09-26T08:55:47.950Z,17.33
2022-09-26T08:58:28.468Z,16.96
2022-09-26T09:01:03.475Z,16.83
2022-09-26T09:03:52.754Z,17.42
2022-09-26T09:06:21.273Z,17.53
2022-09-26T09:08:56.294Z,17.50
2022-09-26T09:11:52.632Z,17.22
2022-09-26T09:14:35.314Z,17.16
2022-09-26T09:17:08.317Z,17.15
2022-09-26T09:20:04.261Z,17.15
2022-09-26T09:23:05.393Z,16.96
2022-09-26T09:25:49.064Z,16.61
2022-09-26T09:28:46.274Z,16.24
2022-09-26T09:31:16.921Z,16.38
2022-09-26T09:34:23.011Z,16.40
2022-09-26T09:37:24.132Z,16.71
2022-09-26T09:40:33.860Z,17.40
2022-09-26T09:43:12.946Z,17.78
2022-09-26T09:45:50.580Z,18.21
2022-09-26T09:48:18.895Z,18.40
2022-09-26T09:51:21.090Z,18.72
2022-09-26T09:54:24.829Z,18.70
2022-09-26T09:57:21.211Z,18.56
2022-09-26T10:00:23.173Z,18.51
2022-09-26T10:03:02.970Z,18.52
2022-09-26T10:05:43.269Z,18.50
2022-09-26T10:08:17.580Z,18.53
2022-09-26T10:11:24.052Z,18.76
2022-09-26T10:14:21.402Z,18.31
2022-09-26T10:17:10.535Z,18.64
2022-09-26T10:20:01.062Z,18.88
2022-09-26T10:22:45.101Z,18.78
2022-09-26T10:25:28.113Z,18.53
2022-09-26T10:27:58.331Z,18.55
2022-09-26T10:30:33.170Z,18.43
2022-09-26T10:33:25.830Z,18.68
2022-09-26T10:36:12.309Z,18.57
2022-09-26T10:39:12.210Z,18.44
2022-09-26T10:41:42.103Z,18.72
2022-09-26T10:44:42.965Z,18.55
2022-09-26T10:47:31.091Z,18.67
2022-09-26T10:50:30.675Z,18.73
2022-09-26T10:53:23.095Z,18.58
2022-09-26T10:55:56.572Z,18.77
2022-09-26T10:58:29.606Z,18.71
2022-09-26T11:01:03.671Z,18.67
2022-09-26T11:03:45.889Z,18.74
2022-09-26T11:06:28.750Z,18.57
2022-09-26T11:09:04.763Z,19.21
2022-09-26T11:11:39.418Z,19.53
2022-09-26T11:14:09.495Z,19.64
2022-09-26T11:16:43.921Z,19.33
2022-09-26T11:19:25.141Z,19.17
2022-09-26T11:22:08.167Z,18.93
2022-09-26T11:24:59.541Z,18.56
2022-09-26T11:27:43.451Z,18.61
2022-09-26T11:30:22.753Z,18.44
2022-09-26T11:33:01.121Z,18.64
2022-09-26T11:36:39.813Z,18.37
2022-09-26T11:39:26.040Z,18.29
2022-09-26T11:42:17.430Z,18.28
2022-09-26T11:44:54.612Z,18.42
2022-09-26T11:48:19.983Z,18.56
2022-09-26T11:51:17.731Z,18.67
2022-09-26T11:53:56.951Z,18.46
2022-09-26T11:56:38.102Z,18.15
2022-09-26T11:59:27.989Z,18.14
2022-09-26T12:02:16.290Z,18.11
2022-09-26T12:05:15.005Z,18.39
2022-09-26T12:08:11.529Z,18.49
2022-09-26T12:10:51.220Z,18.46
2022-09-26T12:13:38.204Z,18.63
2022-09-26T12:16:22.268Z,18.63
2022-09-26T12:18:59.632Z,18.67
2022-09-26T12:21:33.231Z,18.54
2022-09-26T12:24:14.507Z,18.31
2022-09-26T12:26:53.701Z,18.28
2022-09-26T12:29:28.690Z,18.55
2022-09-26T12:32:19.647Z,18.50
2022-09-26T12:35:19.149Z,18.39
2022-09-26T12:38:08.741Z,18.02
2022-09-26T12:40:59.455Z,17.73
2022-09-26T12:43:27.039Z,17.39
2022-09-26T12:46:12.937Z,17.23
2022-09-26T12:49:09.521Z,17.47
2022-09-26T12:51:42.952Z,17.57
2022-09-26T12:54:38.450Z,17.61
2022-09-26T12:57:40.149Z,17.92
2022-09-26T13:00:22.094Z,18.01
2022-09-26T13:03:14.456Z,18.05
2022-09-26T13:06:08.326Z,18.02
2022-09-26T13:08:53.941Z,18.07
2022-09-26T13:11:37.951Z,18.25
2022-09-26T13:14:18.649Z,18.29
2022-09-26T13:16:53.779Z,18.30
2022-09-26T13:19:31.683Z,18.28
2022-09-26T13:22:21.192Z,18.09
2022-09-26T13:25:20.972Z,17.86
2022-09-26T13:27:56.490Z,17.00
2022-09-26T13:30:36.513Z,16.96
2022-09-26T13:33:18.540Z,16.90
2022-09-26T13:35:48.353Z,16.86
2022-09-26T13:38:34.771Z,16.55
2022-09-26T13:41:18.890Z,16.54
2022-09-26T13:44:15.193Z,16.89
2022-09-26T13:47:02.019Z,17.00
2022-09-26T13:49:51.409Z,16.68
2022-09-26T13:52:53.011Z,16.69
2022-09-26T13:55:22.063Z,16.89
2022-09-26T13:58:07.815Z,16.97
2022-09-26T14:00:40.621Z,17.08
2022-09-26T14:03:15.582Z,17.09
2022-09-26T14:05:50.119Z,17.15
2022-09-26T14:08:55.546Z,17.06
2022-09-26T14:11:45.248Z,16.80
2022-09-26T14:14:19.146Z,16.37
2022-09-26T14:16:56.909Z,16.16
2022-09-26T14:19:41.599Z,16.38
2022-09-26T14:22:20.891Z,16.24
2022-09-26T14:24:49.263Z,16.28
2022-09-26T14:27:28.109Z,16.23
2022-09-26T14:30:02.131Z,16.20
2022-09-26T14:32:37.723Z,16.14
2022-09-26T14:35:25.419Z,16.20
2022-09-26T14:38:18.640Z,16.17
2022-09-26T14:40:55.997Z,16.00
2022-09-26T14:43:27.899Z,15.81
2022-09-26T14:46:14.439Z,15.81
2022-09-26T14:48:44.066Z,15.72
2022-09-26T14:51:11.698Z,15.75
2022-09-26T14:53:48.328Z,15.81
2022-09-26T14:56:29.551Z,15.50
2022-09-26T14:59:25.167Z,15.39
2022-09-26T15:01:55.169Z,15.48
2022-09-26T15:04:27.826Z,15.51
2022-09-26T15:07:02.987Z,15.51
2022-09-26T15:09:41.939Z,15.50
2022-09-26T15:12:17.391Z,15.62
2022-09-26T15:15:12.467Z,15.62
2022-09-26T15:17:46.038Z,15.67
2022-09-26T15:20:18.600Z,15.63
2022-09-26T15:22:48.047Z,15.53
2022-09-26T15:25:21.117Z,15.47
2022-09-26T15:27:54.290Z,15.43
2022-09-26T15:30:33.259Z,15.44
2022-09-26T15:33:04.929Z,15.38
2022-09-26T15:35:33.013Z,15.46
2022-09-26T15:38:03.089Z,15.41
2022-09-26T15:40:32.196Z,15.42
2022-09-26T15:43:20.507Z,15.34
2022-09-26T15:45:48.707Z,15.31
2022-09-26T15:48:25.209Z,15.32
2022-09-26T15:51:08.528Z,15.20
2022-09-26T15:53:59.527Z,15.00
2022-09-26T15:56:31.192Z,15.00
2022-09-26T15:59:01.356Z,14.85
2022-09-26T16:01:31.522Z,14.63
2022-09-26T16:04:02.548Z,14.59
2022-09-26T16:06:53.209Z,14.41
2022-09-26T16:09:24.809Z,14.36
2022-09-26T16:11:56.847Z,14.23
2022-09-26T16:14:30.288Z,14.09
2022-09-26T16:17:32.687Z,14.00
2022-09-26T16:20:20.999Z,13.96
2022-09-26T16:22:51.357Z,13.88
2022-09-26T16:25:19.097Z,13.84
2022-09-26T16:27:49.571Z,13.74
2022-09-26T16:30:27.155Z,13.71
2022-09-26T16:33:07.126Z,13.68
2022-09-26T16:35:37.558Z,13.71
2022-09-26T16:38:40.247Z,13.70
2022-09-26T16:41:59.580Z,13.67
2022-09-26T16:44:29.039Z,13.62
2022-09-26T16:47:05.722Z,13.59
2022-09-26T16:49:47.387Z,13.50
2022-09-26T16:52:30.263Z,13.36
2022-09-26T16:55:00.763Z,13.26
2022-09-26T16:57:34.477Z,13.18
2022-09-26T17:00:34.288Z,13.15
2022-09-26T17:03:02.678Z,13.07
2022-09-26T17:05:30.389Z,12.91
2022-09-26T17:07:58.046Z,12.92
2022-09-26T17:10:26.577Z,12.85
2022-09-26T17:12:54.556Z,12.76
2022-09-26T17:15:29.023Z,12.68
2022-09-26T17:17:58.788Z,12.57
2022-09-26T17:20:28.518Z,12.51
2022-09-26T17:22:56.265Z,12.39
2022-09-26T17:25:25.419Z,12.32
2022-09-26T17:27:58.195Z,12.29
2022-09-26T17:30:25.929Z,12.25
2022-09-26T17:32:54.580Z,12.20
2022-09-26T17:35:28.184Z,12.11
2022-09-26T17:37:56.298Z,12.06
2022-09-26T17:40:26.488Z,11.99
2022-09-26T17:42:56.691Z,11.90
2022-09-26T17:45:31.600Z,11.82
2022-09-26T17:48:12.330Z,11.73
2022-09-26T17:50:41.767Z,11.62
2022-09-26T17:53:20.647Z,11.54
2022-09-26T17:55:48.632Z,11.48
2022-09-26T17:58:16.897Z,11.40
2022-09-26T18:00:47.365Z,11.28
2022-09-26T18:03:24.196Z,11.30
2022-09-26T18:05:52.475Z,11.29
2022-09-26T18:08:26.115Z,11.28
2022-09-26T18:11:00.189Z,11.28
2022-09-26T18:13:34.478Z,11.28
2022-09-26T18:16:03.327Z,11.22
2022-09-26T18:18:32.788Z,11.16
2022-09-26T18:21:04.192Z,11.16
2022-09-26T18:23:45.486Z,11.13
2022-09-26T18:26:33.500Z,11.11
2022-09-26T18:29:07.818Z,11.02
2022-09-26T18:31:41.169Z,11.01
2022-09-26T18:34:20.067Z,10.95
2022-09-26T18:36:52.596Z,10.96
2022-09-26T18:39:20.275Z,10.94
2022-09-26T18:41:51.321Z,10.90
2022-09-26T18:44:18.976Z,10.81
2022-09-26T18:46:48.401Z,10.79
2022-09-26T18:49:17.345Z,10.79
2022-09-26T18:51:46.054Z,10.66
2022-09-26T18:54:16.424Z,10.64
2022-09-26T18:57:03.127Z,10.64
2022-09-26T18:59:31.256Z,10.58
2022-09-26T19:02:02.043Z,10.50
2022-09-26T19:04:34.045Z,10.52
2022-09-26T19:07:06.256Z,10.55
2022-09-26T19:09:35.731Z,10.54
2022-09-26T19:12:04.003Z,10.58
2022-09-26T19:14:32.528Z,10.51
2022-09-26T19:17:00.286Z,10.53
2022-09-26T19:19:30.305Z,10.55
2022-09-26T19:22:01.108Z,10.48
2022-09-26T19:24:41.949Z,10.42
2022-09-26T19:27:18.388Z,10.40
2022-09-26T19:29:51.899Z,10.43
2022-09-26T19:32:23.528Z,10.50
2022-09-26T19:34:55.905Z,10.55
2022-09-26T19:37:23.737Z,10.54
2022-09-26T19:39:51.374Z,10.56
2022-09-26T19:42:19.180Z,10.54
2022-09-26T19:44:46.866Z,10.53
2022-09-26T19:47:20.196Z,10.57
2022-09-26T19:49:49.558Z,10.54
2022-09-26T19:52:21.336Z,10.59
2022-09-26T19:54:49.024Z,10.64
2022-09-26T19:57:25.625Z,10.64
2022-09-26T19:59:55.547Z,10.57
2022-09-26T20:02:32.510Z,10.64
2022-09-26T20:05:00.208Z,10.68
2022-09-26T20:07:28.014Z,10.68
2022-09-26T20:09:55.749Z,10.69
2022-09-26T20:12:23.984Z,10.68
2022-09-26T20:14:51.674Z,10.68
2022-09-26T20:17:19.244Z,10.63
2022-09-26T20:19:48.683Z,10.59
2022-09-26T20:22:20.074Z,10.56
2022-09-26T20:24:52.016Z,10.54
2022-09-26T20:27:25.054Z,10.50
2022-09-26T20:30:11.178Z,10.48
2022-09-26T20:32:40.854Z,10.45
2022-09-26T20:35:12.833Z,10.45
2022-09-26T20:37:41.202Z,10.41
2022-09-26T20:40:19.716Z,10.36
2022-09-26T20:42:50.523Z,10.36
2022-09-26T20:45:22.623Z,10.36
2022-09-26T20:47:50.283Z,10.38
2022-09-26T20:50:20.722Z,10.43
2022-09-26T20:52:48.484Z,10.46
2022-09-26T20:55:18.884Z,10.48
2022-09-26T20:57:46.778Z,10.53
2022-09-26T21:00:20.814Z,10.47
2022-09-26T21:02:52.308Z,10.47
2022-09-26T21:05:24.778Z,10.43
2022-09-26T21:07:53.492Z,10.44
2022-09-26T21:10:29.644Z,10.45
2022-09-26T21:12:58.762Z,10.47
2022-09-26T21:15:29.535Z,10.50
2022-09-26T21:17:57.790Z,10.46
2022-09-26T21:20:31.031Z,10.48
2022-09-26T21:23:24.933Z,10.47
2022-09-26T21:25:52.627Z,10.45
2022-09-26T21:28:28.392Z,10.47
2022-09-26T21:31:04.338Z,10.48
2022-09-26T21:33:32.004Z,10.51
2022-09-26T21:35:59.590Z,10.47
2022-09-26T21:38:27.481Z,10.47
2022-09-26T21:40:59.051Z,10.51
2022-09-26T21:43:33.202Z,10.49
2022-09-26T21:46:01.046Z,10.51
2022-09-26T21:48:28.795Z,10.52
2022-09-26T21:50:58.579Z,10.54
2022-09-26T21:53:45.821Z,10.49
2022-09-26T21:56:19.402Z,10.47
2022-09-26T21:58:47.923Z,10.49
2022-09-26T22:01:15.752Z,10.47
2022-09-26T22:03:43.512Z,10.48
2022-09-26T22:06:11.153Z,10.49
2022-09-26T22:08:39.941Z,10.55
2022-09-26T22:11:11.244Z,10.59
2022-09-26T22:13:39.121Z,10.65
2022-09-26T22:16:08.882Z,10.70
2022-09-26T22:18:39.131Z,10.67
2022-09-26T22:21:08.322Z,10.70
2022-09-26T22:23:36.753Z,10.79
2022-09-26T22:26:04.801Z,10.84
2022-09-26T22:28:32.421Z,10.87
2022-09-26T22:31:06.496Z,10.90
2022-09-26T22:33:34.452Z,10.90
2022-09-26T22:36:02.457Z,10.88
2022-09-26T22:38:30.612Z,10.85
2022-09-26T22:41:00.756Z,10.89
2022-09-26T22:43:29.031Z,10.88
2022-09-26T22:46:08.928Z,10.85
2022-09-26T22:48:42.580Z,10.87
2022-09-26T22:51:10.490Z,10.86
2022-09-26T22:53:39.622Z,10.88
2022-09-26T22:56:09.251Z,10.85
2022-09-26T22:58:45.342Z,10.81
2022-09-26T23:01:16.558Z,10.70
2022-09-26T23:03:44.695Z,10.70
2022-09-26T23:06:12.500Z,10.73
2022-09-26T23:08:40.192Z,10.75
2022-09-26T23:11:11.665Z,10.73
2022-09-26T23:13:39.821Z,10.72
2022-09-26T23:16:11.043Z,10.64
2022-09-26T23:18:40.523Z,10.64
2022-09-26T23:21:19.553Z,10.67
2022-09-26T23:23:49.597Z,10.66
2022-09-26T23:26:29.461Z,10.64
2022-09-26T23:28:58.551Z,10.62
2022-09-26T23:31:27.996Z,10.57
2022-09-26T23:33:56.372Z,10.58
2022-09-26T23:36:24.472Z,10.64
2022-09-26T23:38:52.462Z,10.63
2022-09-26T23:41:20.130Z,10.65
2022-09-26T23:43:47.773Z,10.60
2022-09-26T23:46:16.375Z,10.54
2022-09-26T23:48:44.270Z,10.53
2022-09-26T23:51:11.911Z,10.56
2022-09-26T23:53:39.520Z,10.54
2022-09-26T23:56:10.021Z,10.62
2022-09-26T23:58:38.133Z,10.64
